sensor_id;sensor_type;location;lat;lon;timestamp;P1;durP1;ratioP1;P2;durP2;ratioP2
39222;SDS011;24936;46.328;11.026;2023-11-18T00:00:26;1.85;;;0.80;;
39222;SDS011;24936;46.328;11.026;2023-11-18T00:02:52;0.65;;;0.65;;
39222;SDS011;24936;46.328;11.026;2023-11-18T00:05:17;3.28;;;1.00;;
39222;SDS011;24936;46.328;11.026;2023-11-18T00:07:43;0.45;;;0.45;;
39222;SDS011;24936;46.328;11.026;2023-11-18T00:10:08;1.15;;;1.05;;
39222;SDS011;24936;46.328;11.026;2023-11-18T00:12:35;0.80;;;0.80;;
39222;SDS011;24936;46.328;11.026;2023-11-18T00:15:01;0.93;;;0.93;;
39222;SDS011;24936;46.328;11.026;2023-11-18T00:17:28;0.85;;;0.75;;
39222;SDS011;24936;46.328;11.026;2023-11-18T00:19:55;1.08;;;0.82;;
39222;SDS011;24936;46.328;11.026;2023-11-18T00:22:20;1.52;;;1.23;;
39222;SDS011;24936;46.328;11.026;2023-11-18T00:24:46;1.45;;;1.20;;
39222;SDS011;24936;46.328;11.026;2023-11-18T00:27:11;0.93;;;0.90;;
39222;SDS011;24936;46.328;11.026;2023-11-18T00:29:40;0.90;;;0.90;;
39222;SDS011;24936;46.328;11.026;2023-11-18T00:32:06;1.15;;;1.05;;
39222;SDS011;24936;46.328;11.026;2023-11-18T00:34:32;0.40;;;0.40;;
39222;SDS011;24936;46.328;11.026;2023-11-18T00:36:58;0.40;;;0.40;;
39222;SDS011;24936;46.328;11.026;2023-11-18T00:39:24;0.43;;;0.43;;
39222;SDS011;24936;46.328;11.026;2023-11-18T00:41:50;0.50;;;0.50;;
39222;SDS011;24936;46.328;11.026;2023-11-18T00:44:15;0.73;;;0.47;;
39222;SDS011;24936;46.328;11.026;2023-11-18T00:46:41;1.20;;;0.60;;
39222;SDS011;24936;46.328;11.026;2023-11-18T00:49:06;1.80;;;0.90;;
39222;SDS011;24936;46.328;11.026;2023-11-18T00:51:32;1.80;;;0.80;;
39222;SDS011;24936;46.328;11.026;2023-11-18T00:53:57;0.57;;;0.57;;
39222;SDS011;24936;46.328;11.026;2023-11-18T00:56:26;0.50;;;0.50;;
39222;SDS011;24936;46.328;11.026;2023-11-18T00:58:51;1.50;;;1.05;;
39222;SDS011;24936;46.328;11.026;2023-11-18T01:01:17;1.13;;;0.82;;
39222;SDS011;24936;46.328;11.026;2023-11-18T01:03:44;0.70;;;0.70;;
39222;SDS011;24936;46.328;11.026;2023-11-18T01:06:10;1.25;;;0.93;;
39222;SDS011;24936;46.328;11.026;2023-11-18T01:08:35;1.13;;;1.08;;
39222;SDS011;24936;46.328;11.026;2023-11-18T01:11:01;0.40;;;0.40;;
39222;SDS011;24936;46.328;11.026;2023-11-18T01:13:26;1.52;;;1.20;;
39222;SDS011;24936;46.328;11.026;2023-11-18T01:15:53;0.77;;;0.77;;
39222;SDS011;24936;46.328;11.026;2023-11-18T01:18:18;0.85;;;0.85;;
39222;SDS011;24936;46.328;11.026;2023-11-18T01:20:43;0.90;;;0.90;;
39222;SDS011;24936;46.328;11.026;2023-11-18T01:23:09;1.67;;;1.58;;
39222;SDS011;24936;46.328;11.026;2023-11-18T01:25:35;1.35;;;1.27;;
39222;SDS011;24936;46.328;11.026;2023-11-18T01:28:00;0.82;;;0.82;;
39222;SDS011;24936;46.328;11.026;2023-11-18T01:30:26;0.50;;;0.50;;
39222;SDS011;24936;46.328;11.026;2023-11-18T01:32:52;0.90;;;0.90;;
39222;SDS011;24936;46.328;11.026;2023-11-18T01:35:17;2.17;;;1.27;;
39222;SDS011;24936;46.328;11.026;2023-11-18T01:37:44;0.80;;;0.80;;
39222;SDS011;24936;46.328;11.026;2023-11-18T01:40:10;0.60;;;0.60;;
39222;SDS011;24936;46.328;11.026;2023-11-18T01:42:44;1.88;;;1.02;;
39222;SDS011;24936;46.328;11.026;2023-11-18T01:45:11;0.75;;;0.73;;
39222;SDS011;24936;46.328;11.026;2023-11-18T01:47:38;0.40;;;0.40;;
39222;SDS011;24936;46.328;11.026;2023-11-18T01:50:05;0.30;;;0.30;;
39222;SDS011;24936;46.328;11.026;2023-11-18T01:52:33;1.75;;;1.13;;
39222;SDS011;24936;46.328;11.026;2023-11-18T01:54:59;0.55;;;0.55;;
39222;SDS011;24936;46.328;11.026;2023-11-18T01:57:26;0.93;;;0.88;;
39222;SDS011;24936;46.328;11.026;2023-11-18T01:59:52;1.70;;;0.82;;
39222;SDS011;24936;46.328;11.026;2023-11-18T02:02:19;0.85;;;0.75;;
39222;SDS011;24936;46.328;11.026;2023-11-18T02:04:46;1.23;;;1.00;;
39222;SDS011;24936;46.328;11.026;2023-11-18T02:07:12;0.75;;;0.65;;
39222;SDS011;24936;46.328;11.026;2023-11-18T02:09:40;0.82;;;0.80;;
39222;SDS011;24936;46.328;11.026;2023-11-18T02:12:08;0.75;;;0.55;;
39222;SDS011;24936;46.328;11.026;2023-11-18T02:14:52;0.50;;;0.47;;
39222;SDS011;24936;46.328;11.026;2023-11-18T02:17:20;0.40;;;0.40;;
39222;SDS011;24936;46.328;11.026;2023-11-18T02:19:50;0.60;;;0.60;;
39222;SDS011;24936;46.328;11.026;2023-11-18T02:22:17;0.88;;;0.75;;
39222;SDS011;24936;46.328;11.026;2023-11-18T02:24:43;0.40;;;0.40;;
39222;SDS011;24936;46.328;11.026;2023-11-18T02:27:09;0.40;;;0.40;;
39222;SDS011;24936;46.328;11.026;2023-11-18T02:29:39;0.40;;;0.40;;
39222;SDS011;24936;46.328;11.026;2023-11-18T02:32:28;0.30;;;0.30;;
39222;SDS011;24936;46.328;11.026;2023-11-18T02:35:08;0.30;;;0.30;;
39222;SDS011;24936;46.328;11.026;2023-11-18T02:37:42;1.50;;;0.90;;
39222;SDS011;24936;46.328;11.026;2023-11-18T02:40:11;0.40;;;0.40;;
39222;SDS011;24936;46.328;11.026;2023-11-18T02:42:41;0.77;;;0.77;;
39222;SDS011;24936;46.328;11.026;2023-11-18T02:45:10;1.25;;;1.23;;
39222;SDS011;24936;46.328;11.026;2023-11-18T02:47:41;0.50;;;0.50;;
39222;SDS011;24936;46.328;11.026;2023-11-18T02:50:09;1.20;;;0.70;;
39222;SDS011;24936;46.328;11.026;2023-11-18T02:52:39;0.30;;;0.30;;
39222;SDS011;24936;46.328;11.026;2023-11-18T02:55:08;0.20;;;0.20;;
39222;SDS011;24936;46.328;11.026;2023-11-18T02:57:37;0.80;;;0.50;;
39222;SDS011;24936;46.328;11.026;2023-11-18T03:00:04;0.40;;;0.40;;
39222;SDS011;24936;46.328;11.026;2023-11-18T03:02:33;0.30;;;0.30;;
39222;SDS011;24936;46.328;11.026;2023-11-18T03:04:58;0.40;;;0.30;;
39222;SDS011;24936;46.328;11.026;2023-11-18T03:07:24;0.60;;;0.60;;
39222;SDS011;24936;46.328;11.026;2023-11-18T03:09:52;0.70;;;0.50;;
39222;SDS011;24936;46.328;11.026;2023-11-18T03:12:17;0.52;;;0.52;;
39222;SDS011;24936;46.328;11.026;2023-11-18T03:14:43;0.50;;;0.40;;
39222;SDS011;24936;46.328;11.026;2023-11-18T03:17:09;0.45;;;0.45;;
39222;SDS011;24936;46.328;11.026;2023-11-18T03:19:35;1.17;;;0.90;;
39222;SDS011;24936;46.328;11.026;2023-11-18T03:22:01;0.47;;;0.40;;
39222;SDS011;24936;46.328;11.026;2023-11-18T03:24:27;1.65;;;0.63;;
39222;SDS011;24936;46.328;11.026;2023-11-18T03:26:55;0.60;;;0.60;;
39222;SDS011;24936;46.328;11.026;2023-11-18T03:29:21;0.40;;;0.40;;
39222;SDS011;24936;46.328;11.026;2023-11-18T03:31:47;1.48;;;0.82;;
39222;SDS011;24936;46.328;11.026;2023-11-18T03:34:14;0.20;;;0.20;;
39222;SDS011;24936;46.328;11.026;2023-11-18T03:36:41;0.50;;;0.50;;
39222;SDS011;24936;46.328;11.026;2023-11-18T03:39:06;0.80;;;0.40;;
39222;SDS011;24936;46.328;11.026;2023-11-18T03:41:31;0.40;;;0.40;;
39222;SDS011;24936;46.328;11.026;2023-11-18T03:43:57;0.50;;;0.50;;
39222;SDS011;24936;46.328;11.026;2023-11-18T03:46:23;0.60;;;0.60;;
39222;SDS011;24936;46.328;11.026;2023-11-18T03:48:48;0.47;;;0.40;;
39222;SDS011;24936;46.328;11.026;2023-11-18T03:51:14;0.80;;;0.80;;
39222;SDS011;24936;46.328;11.026;2023-11-18T03:53:42;1.23;;;0.63;;
39222;SDS011;24936;46.328;11.026;2023-11-18T03:56:07;1.08;;;0.70;;
39222;SDS011;24936;46.328;11.026;2023-11-18T03:58:34;2.17;;;1.10;;
39222;SDS011;24936;46.328;11.026;2023-11-18T04:01:01;1.52;;;0.73;;
39222;SDS011;24936;46.328;11.026;2023-11-18T04:03:27;1.27;;;0.43;;
39222;SDS011;24936;46.328;11.026;2023-11-18T04:05:52;0.30;;;0.30;;
39222;SDS011;24936;46.328;11.026;2023-11-18T04:08:17;1.20;;;0.70;;
39222;SDS011;24936;46.328;11.026;2023-11-18T04:10:43;0.60;;;0.60;;
39222;SDS011;24936;46.328;11.026;2023-11-18T04:13:08;0.47;;;0.47;;
39222;SDS011;24936;46.328;11.026;2023-11-18T04:15:34;0.60;;;0.60;;
39222;SDS011;24936;46.328;11.026;2023-11-18T04:18:00;0.55;;;0.35;;
39222;SDS011;24936;46.328;11.026;2023-11-18T04:20:26;0.47;;;0.30;;
39222;SDS011;24936;46.328;11.026;2023-11-18T04:22:52;0.22;;;0.22;;
39222;SDS011;24936;46.328;11.026;2023-11-18T04:25:19;0.80;;;0.80;;
39222;SDS011;24936;46.328;11.026;2023-11-18T04:27:46;0.40;;;0.40;;
39222;SDS011;24936;46.328;11.026;2023-11-18T04:30:12;0.65;;;0.65;;
39222;SDS011;24936;46.328;11.026;2023-11-18T04:32:38;0.20;;;0.20;;
39222;SDS011;24936;46.328;11.026;2023-11-18T04:35:03;0.22;;;0.22;;
39222;SDS011;24936;46.328;11.026;2023-11-18T04:37:32;0.20;;;0.20;;
39222;SDS011;24936;46.328;11.026;2023-11-18T04:39:59;0.30;;;0.30;;
39222;SDS011;24936;46.328;11.026;2023-11-18T04:42:25;0.20;;;0.20;;
39222;SDS011;24936;46.328;11.026;2023-11-18T04:44:50;0.20;;;0.20;;
39222;SDS011;24936;46.328;11.026;2023-11-18T04:47:16;0.20;;;0.20;;
39222;SDS011;24936;46.328;11.026;2023-11-18T04:49:43;0.20;;;0.20;;
39222;SDS011;24936;46.328;11.026;2023-11-18T04:52:09;0.40;;;0.40;;
39222;SDS011;24936;46.328;11.026;2023-11-18T04:54:35;0.22;;;0.22;;
39222;SDS011;24936;46.328;11.026;2023-11-18T04:57:01;0.28;;;0.28;;
39222;SDS011;24936;46.328;11.026;2023-11-18T04:59:26;0.52;;;0.52;;
39222;SDS011;24936;46.328;11.026;2023-11-18T05:01:51;1.85;;;0.30;;
39222;SDS011;24936;46.328;11.026;2023-11-18T05:04:18;0.35;;;0.35;;
39222;SDS011;24936;46.328;11.026;2023-11-18T05:06:44;0.20;;;0.20;;
39222;SDS011;24936;46.328;11.026;2023-11-18T05:09:09;0.20;;;0.20;;
39222;SDS011;24936;46.328;11.026;2023-11-18T05:11:35;0.35;;;0.35;;
39222;SDS011;24936;46.328;11.026;2023-11-18T05:14:01;0.40;;;0.40;;
39222;SDS011;24936;46.328;11.026;2023-11-18T05:16:28;0.65;;;0.60;;
39222;SDS011;24936;46.328;11.026;2023-11-18T05:18:54;0.95;;;0.57;;
39222;SDS011;24936;46.328;11.026;2023-11-18T05:21:20;0.10;;;0.10;;
39222;SDS011;24936;46.328;11.026;2023-11-18T05:23:45;0.10;;;0.10;;
39222;SDS011;24936;46.328;11.026;2023-11-18T05:26:11;0.20;;;0.20;;
39222;SDS011;24936;46.328;11.026;2023-11-18T05:28:36;0.40;;;0.40;;
39222;SDS011;24936;46.328;11.026;2023-11-18T05:31:03;0.30;;;0.30;;
39222;SDS011;24936;46.328;11.026;2023-11-18T05:33:30;4.03;;;0.63;;
39222;SDS011;24936;46.328;11.026;2023-11-18T05:35:56;3.50;;;1.52;;
39222;SDS011;24936;46.328;11.026;2023-11-18T05:38:22;0.57;;;0.57;;
39222;SDS011;24936;46.328;11.026;2023-11-18T05:40:48;0.40;;;0.40;;
39222;SDS011;24936;46.328;11.026;2023-11-18T05:43:26;1.02;;;0.95;;
39222;SDS011;24936;46.328;11.026;2023-11-18T05:46:01;0.50;;;0.50;;
39222;SDS011;24936;46.328;11.026;2023-11-18T05:48:46;2.17;;;0.90;;
39222;SDS011;24936;46.328;11.026;2023-11-18T05:51:13;0.80;;;0.70;;
39222;SDS011;24936;46.328;11.026;2023-11-18T05:53:42;1.23;;;1.05;;
39222;SDS011;24936;46.328;11.026;2023-11-18T05:56:10;0.63;;;0.63;;
39222;SDS011;24936;46.328;11.026;2023-11-18T05:58:36;2.42;;;1.27;;
39222;SDS011;24936;46.328;11.026;2023-11-18T06:01:03;1.83;;;0.50;;
39222;SDS011;24936;46.328;11.026;2023-11-18T06:03:30;0.82;;;0.82;;
39222;SDS011;24936;46.328;11.026;2023-11-18T06:05:55;1.25;;;0.60;;
39222;SDS011;24936;46.328;11.026;2023-11-18T06:08:21;0.98;;;0.88;;
39222;SDS011;24936;46.328;11.026;2023-11-18T06:10:47;1.38;;;0.75;;
39222;SDS011;24936;46.328;11.026;2023-11-18T06:13:14;1.13;;;0.80;;
39222;SDS011;24936;46.328;11.026;2023-11-18T06:15:41;2.08;;;1.98;;
39222;SDS011;24936;46.328;11.026;2023-11-18T06:18:08;0.50;;;0.50;;
39222;SDS011;24936;46.328;11.026;2023-11-18T06:20:34;0.82;;;0.77;;
39222;SDS011;24936;46.328;11.026;2023-11-18T06:23:00;0.50;;;0.50;;
39222;SDS011;24936;46.328;11.026;2023-11-18T06:25:26;0.90;;;0.90;;
39222;SDS011;24936;46.328;11.026;2023-11-18T06:27:51;1.52;;;0.82;;
39222;SDS011;24936;46.328;11.026;2023-11-18T06:30:20;1.30;;;0.93;;
39222;SDS011;24936;46.328;11.026;2023-11-18T06:32:45;0.52;;;0.50;;
39222;SDS011;24936;46.328;11.026;2023-11-18T06:35:13;0.60;;;0.60;;
39222;SDS011;24936;46.328;11.026;2023-11-18T06:37:42;0.70;;;0.70;;
39222;SDS011;24936;46.328;11.026;2023-11-18T06:40:08;0.63;;;0.60;;
39222;SDS011;24936;46.328;11.026;2023-11-18T06:42:41;0.77;;;0.52;;
39222;SDS011;24936;46.328;11.026;2023-11-18T06:45:08;2.35;;;0.75;;
39222;SDS011;24936;46.328;11.026;2023-11-18T06:47:34;1.58;;;0.95;;
39222;SDS011;24936;46.328;11.026;2023-11-18T06:50:01;0.40;;;0.40;;
39222;SDS011;24936;46.328;11.026;2023-11-18T06:52:27;0.40;;;0.40;;
39222;SDS011;24936;46.328;11.026;2023-11-18T06:54:53;0.40;;;0.40;;
39222;SDS011;24936;46.328;11.026;2023-11-18T06:57:20;0.45;;;0.45;;
39222;SDS011;24936;46.328;11.026;2023-11-18T06:59:46;0.85;;;0.65;;
39222;SDS011;24936;46.328;11.026;2023-11-18T07:02:12;0.98;;;0.98;;
39222;SDS011;24936;46.328;11.026;2023-11-18T07:04:38;0.93;;;0.90;;
39222;SDS011;24936;46.328;11.026;2023-11-18T07:07:04;1.48;;;1.38;;
39222;SDS011;24936;46.328;11.026;2023-11-18T07:09:29;1.23;;;1.15;;
39222;SDS011;24936;46.328;11.026;2023-11-18T07:12:00;5.32;;;3.00;;
39222;SDS011;24936;46.328;11.026;2023-11-18T07:14:26;5.57;;;3.28;;
39222;SDS011;24936;46.328;11.026;2023-11-18T07:16:52;2.58;;;2.35;;
39222;SDS011;24936;46.328;11.026;2023-11-18T07:19:18;5.85;;;2.47;;
39222;SDS011;24936;46.328;11.026;2023-11-18T07:21:45;2.80;;;2.53;;
39222;SDS011;24936;46.328;11.026;2023-11-18T07:24:11;1.92;;;1.45;;
39222;SDS011;24936;46.328;11.026;2023-11-18T07:26:37;1.92;;;1.73;;
39222;SDS011;24936;46.328;11.026;2023-11-18T07:29:02;1.92;;;1.83;;
39222;SDS011;24936;46.328;11.026;2023-11-18T07:31:28;3.67;;;3.15;;
39222;SDS011;24936;46.328;11.026;2023-11-18T07:33:54;2.63;;;0.77;;
39222;SDS011;24936;46.328;11.026;2023-11-18T07:36:20;2.15;;;1.95;;
39222;SDS011;24936;46.328;11.026;2023-11-18T07:38:46;2.40;;;2.20;;
39222;SDS011;24936;46.328;11.026;2023-11-18T07:41:12;2.00;;;1.33;;
39222;SDS011;24936;46.328;11.026;2023-11-18T07:43:51;2.08;;;1.88;;
39222;SDS011;24936;46.328;11.026;2023-11-18T07:46:21;1.58;;;1.38;;
39222;SDS011;24936;46.328;11.026;2023-11-18T07:48:50;0.65;;;0.65;;
39222;SDS011;24936;46.328;11.026;2023-11-18T07:51:17;1.27;;;1.17;;
39222;SDS011;24936;46.328;11.026;2023-11-18T07:53:46;1.10;;;1.03;;
39222;SDS011;24936;46.328;11.026;2023-11-18T07:56:12;0.68;;;0.68;;
39222;SDS011;24936;46.328;11.026;2023-11-18T07:58:39;0.45;;;0.45;;
39222;SDS011;24936;46.328;11.026;2023-11-18T08:01:10;1.15;;;0.88;;
39222;SDS011;24936;46.328;11.026;2023-11-18T08:03:36;1.10;;;0.70;;
39222;SDS011;24936;46.328;11.026;2023-11-18T08:06:03;1.15;;;1.10;;
39222;SDS011;24936;46.328;11.026;2023-11-18T08:08:32;1.02;;;1.02;;
39222;SDS011;24936;46.328;11.026;2023-11-18T08:11:02;1.42;;;1.33;;
39222;SDS011;24936;46.328;11.026;2023-11-18T08:13:29;1.83;;;1.65;;
39222;SDS011;24936;46.328;11.026;2023-11-18T08:15:55;2.63;;;2.00;;
39222;SDS011;24936;46.328;11.026;2023-11-18T08:18:23;1.30;;;1.15;;
39222;SDS011;24936;46.328;11.026;2023-11-18T08:20:49;1.20;;;1.15;;
39222;SDS011;24936;46.328;11.026;2023-11-18T08:23:15;1.83;;;1.67;;
39222;SDS011;24936;46.328;11.026;2023-11-18T08:25:40;2.22;;;1.98;;
39222;SDS011;24936;46.328;11.026;2023-11-18T08:28:06;3.33;;;2.40;;
39222;SDS011;24936;46.328;11.026;2023-11-18T08:30:33;2.00;;;1.67;;
39222;SDS011;24936;46.328;11.026;2023-11-18T08:32:59;2.13;;;1.75;;
39222;SDS011;24936;46.328;11.026;2023-11-18T08:35:25;1.70;;;1.60;;
39222;SDS011;24936;46.328;11.026;2023-11-18T08:37:51;3.47;;;2.47;;
39222;SDS011;24936;46.328;11.026;2023-11-18T08:40:17;3.60;;;1.85;;
39222;SDS011;24936;46.328;11.026;2023-11-18T08:42:50;2.33;;;1.83;;
39222;SDS011;24936;46.328;11.026;2023-11-18T08:45:22;1.67;;;1.33;;
39222;SDS011;24936;46.328;11.026;2023-11-18T08:47:58;3.42;;;2.05;;
39222;SDS011;24936;46.328;11.026;2023-11-18T08:50:36;1.83;;;1.73;;
39222;SDS011;24936;46.328;11.026;2023-11-18T08:53:05;2.63;;;2.20;;
39222;SDS011;24936;46.328;11.026;2023-11-18T08:55:31;3.72;;;1.80;;
39222;SDS011;24936;46.328;11.026;2023-11-18T08:58:16;1.00;;;0.88;;
39222;SDS011;24936;46.328;11.026;2023-11-18T09:00:46;1.50;;;1.38;;
39222;SDS011;24936;46.328;11.026;2023-11-18T09:03:13;1.48;;;1.15;;
39222;SDS011;24936;46.328;11.026;2023-11-18T09:08:43;2.55;;;1.40;;
39222;SDS011;24936;46.328;11.026;2023-11-18T09:11:08;2.10;;;1.70;;
39222;SDS011;24936;46.328;11.026;2023-11-18T09:13:42;1.52;;;1.42;;
39222;SDS011;24936;46.328;11.026;2023-11-18T09:16:10;2.35;;;1.23;;
39222;SDS011;24936;46.328;11.026;2023-11-18T09:18:37;3.20;;;2.38;;
39222;SDS011;24936;46.328;11.026;2023-11-18T09:21:04;2.03;;;1.42;;
39222;SDS011;24936;46.328;11.026;2023-11-18T09:23:31;1.50;;;1.40;;
39222;SDS011;24936;46.328;11.026;2023-11-18T09:26:03;3.65;;;2.78;;
39222;SDS011;24936;46.328;11.026;2023-11-18T09:28:39;2.00;;;1.70;;
39222;SDS011;24936;46.328;11.026;2023-11-18T09:31:05;2.25;;;1.67;;
39222;SDS011;24936;46.328;11.026;2023-11-18T09:33:36;3.35;;;2.28;;
39222;SDS011;24936;46.328;11.026;2023-11-18T09:38:33;2.47;;;1.80;;
39222;SDS011;24936;46.328;11.026;2023-11-18T09:41:05;2.10;;;2.00;;
39222;SDS011;24936;46.328;11.026;2023-11-18T09:43:39;2.08;;;1.88;;
39222;SDS011;24936;46.328;11.026;2023-11-18T09:46:14;1.80;;;1.70;;
39222;SDS011;24936;46.328;11.026;2023-11-18T09:48:55;7.03;;;2.15;;
39222;SDS011;24936;46.328;11.026;2023-11-18T09:51:43;2.38;;;1.80;;
39222;SDS011;24936;46.328;11.026;2023-11-18T09:59:42;9.02;;;5.53;;
39222;SDS011;24936;46.328;11.026;2023-11-18T10:02:51;4.40;;;2.88;;
39222;SDS011;24936;46.328;11.026;2023-11-18T10:05:21;4.55;;;3.65;;
39222;SDS011;24936;46.328;11.026;2023-11-18T10:07:48;2.17;;;1.80;;
39222;SDS011;24936;46.328;11.026;2023-11-18T10:10:14;7.25;;;3.60;;
39222;SDS011;24936;46.328;11.026;2023-11-18T10:12:46;2.42;;;2.20;;
39222;SDS011;24936;46.328;11.026;2023-11-18T10:15:17;3.15;;;2.22;;
39222;SDS011;24936;46.328;11.026;2023-11-18T10:17:48;2.55;;;2.17;;
39222;SDS011;24936;46.328;11.026;2023-11-18T10:23:07;3.63;;;2.15;;
39222;SDS011;24936;46.328;11.026;2023-11-18T10:25:36;3.80;;;2.33;;
39222;SDS011;24936;46.328;11.026;2023-11-18T10:28:07;2.70;;;2.33;;
39222;SDS011;24936;46.328;11.026;2023-11-18T10:30:42;5.07;;;2.10;;
39222;SDS011;24936;46.328;11.026;2023-11-18T10:33:13;2.30;;;1.65;;
39222;SDS011;24936;46.328;11.026;2023-11-18T10:35:48;3.63;;;2.20;;
39222;SDS011;24936;46.328;11.026;2023-11-18T10:38:16;2.08;;;1.90;;
39222;SDS011;24936;46.328;11.026;2023-11-18T10:40:42;1.52;;;1.23;;
39222;SDS011;24936;46.328;11.026;2023-11-18T10:43:09;1.23;;;1.13;;
39222;SDS011;24936;46.328;11.026;2023-11-18T10:45:35;4.78;;;4.38;;
39222;SDS011;24936;46.328;11.026;2023-11-18T10:48:07;0.80;;;0.80;;
39222;SDS011;24936;46.328;11.026;2023-11-18T10:50:33;2.13;;;1.77;;
39222;SDS011;24936;46.328;11.026;2023-11-18T10:53:02;1.10;;;1.00;;
39222;SDS011;24936;46.328;11.026;2023-11-18T10:55:39;1.70;;;1.60;;
39222;SDS011;24936;46.328;11.026;2023-11-18T10:58:05;1.38;;;1.27;;
39222;SDS011;24936;46.328;11.026;2023-11-18T11:00:46;1.27;;;1.17;;
39222;SDS011;24936;46.328;11.026;2023-11-18T11:03:18;1.98;;;1.88;;
39222;SDS011;24936;46.328;11.026;2023-11-18T11:05:43;1.75;;;1.38;;
39222;SDS011;24936;46.328;11.026;2023-11-18T11:08:14;0.75;;;0.70;;
39222;SDS011;24936;46.328;11.026;2023-11-18T11:10:41;1.30;;;1.02;;
39222;SDS011;24936;46.328;11.026;2023-11-18T11:13:09;0.65;;;0.65;;
39222;SDS011;24936;46.328;11.026;2023-11-18T11:15:40;0.70;;;0.70;;
39222;SDS011;24936;46.328;11.026;2023-11-18T11:18:11;0.60;;;0.60;;
39222;SDS011;24936;46.328;11.026;2023-11-18T11:23:39;1.25;;;1.02;;
39222;SDS011;24936;46.328;11.026;2023-11-18T11:29:57;1.38;;;1.00;;
39222;SDS011;24936;46.328;11.026;2023-11-18T11:34:28;0.80;;;0.68;;
39222;SDS011;24936;46.328;11.026;2023-11-18T11:36:56;0.60;;;0.60;;
39222;SDS011;24936;46.328;11.026;2023-11-18T11:39:26;0.93;;;0.93;;
39222;SDS011;24936;46.328;11.026;2023-11-18T11:41:55;2.60;;;1.13;;
39222;SDS011;24936;46.328;11.026;2023-11-18T11:44:21;0.77;;;0.77;;
39222;SDS011;24936;46.328;11.026;2023-11-18T11:46:54;0.47;;;0.47;;
39222;SDS011;24936;46.328;11.026;2023-11-18T11:49:20;0.80;;;0.80;;
39222;SDS011;24936;46.328;11.026;2023-11-18T11:52:11;1.65;;;0.85;;
39222;SDS011;24936;46.328;11.026;2023-11-18T11:54:48;1.15;;;1.00;;
39222;SDS011;24936;46.328;11.026;2023-11-18T11:57:38;0.73;;;0.73;;
39222;SDS011;24936;46.328;11.026;2023-11-18T12:00:03;1.42;;;1.10;;
39222;SDS011;24936;46.328;11.026;2023-11-18T12:02:40;5.50;;;0.82;;
39222;SDS011;24936;46.328;11.026;2023-11-18T12:05:15;0.70;;;0.70;;
39222;SDS011;24936;46.328;11.026;2023-11-18T12:07:44;0.88;;;0.85;;
39222;SDS011;24936;46.328;11.026;2023-11-18T12:10:11;1.10;;;0.95;;
39222;SDS011;24936;46.328;11.026;2023-11-18T12:12:45;1.20;;;0.95;;
39222;SDS011;24936;46.328;11.026;2023-11-18T12:15:11;1.67;;;1.05;;
39222;SDS011;24936;46.328;11.026;2023-11-18T12:23:35;1.88;;;1.30;;
39222;SDS011;24936;46.328;11.026;2023-11-18T12:26:01;2.88;;;2.13;;
39222;SDS011;24936;46.328;11.026;2023-11-18T12:28:50;1.48;;;1.38;;
39222;SDS011;24936;46.328;11.026;2023-11-18T12:31:38;1.40;;;1.30;;
39222;SDS011;24936;46.328;11.026;2023-11-18T12:34:04;1.35;;;1.25;;
39222;SDS011;24936;46.328;11.026;2023-11-18T12:42:50;0.82;;;0.80;;
39222;SDS011;24936;46.328;11.026;2023-11-18T12:45:39;2.75;;;1.00;;
39222;SDS011;24936;46.328;11.026;2023-11-18T12:48:09;1.65;;;1.13;;
39222;SDS011;24936;46.328;11.026;2023-11-18T12:50:42;0.80;;;0.80;;
39222;SDS011;24936;46.328;11.026;2023-11-18T12:53:11;0.98;;;0.98;;
39222;SDS011;24936;46.328;11.026;2023-11-18T12:55:39;1.00;;;0.98;;
39222;SDS011;24936;46.328;11.026;2023-11-18T12:58:06;1.02;;;1.00;;
39222;SDS011;24936;46.328;11.026;2023-11-18T13:00:32;1.85;;;1.48;;
39222;SDS011;24936;46.328;11.026;2023-11-18T13:02:59;1.33;;;0.90;;
39222;SDS011;24936;46.328;11.026;2023-11-18T13:05:25;7.63;;;1.60;;
39222;SDS011;24936;46.328;11.026;2023-11-18T13:07:55;0.95;;;0.80;;
39222;SDS011;24936;46.328;11.026;2023-11-18T13:10:22;1.83;;;1.48;;
39222;SDS011;24936;46.328;11.026;2023-11-18T13:12:49;1.55;;;1.45;;
39222;SDS011;24936;46.328;11.026;2023-11-18T13:15:15;1.88;;;1.75;;
39222;SDS011;24936;46.328;11.026;2023-11-18T13:17:56;1.80;;;0.90;;
39222;SDS011;24936;46.328;11.026;2023-11-18T13:20:22;1.27;;;1.10;;
39222;SDS011;24936;46.328;11.026;2023-11-18T13:22:49;0.68;;;0.60;;
39222;SDS011;24936;46.328;11.026;2023-11-18T13:25:15;1.10;;;1.00;;
39222;SDS011;24936;46.328;11.026;2023-11-18T13:27:43;2.15;;;1.50;;
39222;SDS011;24936;46.328;11.026;2023-11-18T13:30:09;2.53;;;1.13;;
39222;SDS011;24936;46.328;11.026;2023-11-18T13:32:41;1.52;;;1.17;;
39222;SDS011;24936;46.328;11.026;2023-11-18T13:35:08;1.67;;;1.38;;
39222;SDS011;24936;46.328;11.026;2023-11-18T13:37:36;1.67;;;1.27;;
39222;SDS011;24936;46.328;11.026;2023-11-18T13:40:01;0.88;;;0.82;;
39222;SDS011;24936;46.328;11.026;2023-11-18T13:42:31;1.27;;;0.87;;
39222;SDS011;24936;46.328;11.026;2023-11-18T13:45:05;3.47;;;2.75;;
39222;SDS011;24936;46.328;11.026;2023-11-18T13:47:37;1.63;;;1.10;;
39222;SDS011;24936;46.328;11.026;2023-11-18T13:50:06;1.55;;;1.10;;
39222;SDS011;24936;46.328;11.026;2023-11-18T13:52:33;1.70;;;1.25;;
39222;SDS011;24936;46.328;11.026;2023-11-18T13:54:59;1.45;;;1.35;;
39222;SDS011;24936;46.328;11.026;2023-11-18T13:57:25;1.05;;;0.98;;
39222;SDS011;24936;46.328;11.026;2023-11-18T13:59:51;0.70;;;0.70;;
39222;SDS011;24936;46.328;11.026;2023-11-18T14:02:17;1.17;;;0.98;;
39222;SDS011;24936;46.328;11.026;2023-11-18T14:04:43;1.67;;;1.55;;
39222;SDS011;24936;46.328;11.026;2023-11-18T14:07:09;3.92;;;2.67;;
39222;SDS011;24936;46.328;11.026;2023-11-18T14:09:38;3.45;;;2.45;;
39222;SDS011;24936;46.328;11.026;2023-11-18T14:12:09;3.63;;;3.28;;
39222;SDS011;24936;46.328;11.026;2023-11-18T14:14:36;4.90;;;2.80;;
39222;SDS011;24936;46.328;11.026;2023-11-18T14:17:03;4.40;;;4.00;;
39222;SDS011;24936;46.328;11.026;2023-11-18T14:19:31;3.60;;;2.95;;
39222;SDS011;24936;46.328;11.026;2023-11-18T14:21:57;3.78;;;2.97;;
39222;SDS011;24936;46.328;11.026;2023-11-18T14:30:51;2.40;;;2.05;;
39222;SDS011;24936;46.328;11.026;2023-11-18T14:33:17;2.28;;;1.88;;
39222;SDS011;24936;46.328;11.026;2023-11-18T14:35:45;2.45;;;1.80;;
39222;SDS011;24936;46.328;11.026;2023-11-18T14:38:11;2.25;;;2.05;;
39222;SDS011;24936;46.328;11.026;2023-11-18T14:40:38;5.30;;;2.13;;
39222;SDS011;24936;46.328;11.026;2023-11-18T14:43:05;2.05;;;1.83;;
39222;SDS011;24936;46.328;11.026;2023-11-18T14:45:32;2.28;;;1.63;;
39222;SDS011;24936;46.328;11.026;2023-11-18T14:48:00;2.10;;;1.60;;
39222;SDS011;24936;46.328;11.026;2023-11-18T14:50:25;3.65;;;1.65;;
39222;SDS011;24936;46.328;11.026;2023-11-18T14:52:52;4.60;;;1.63;;
39222;SDS011;24936;46.328;11.026;2023-11-18T14:55:27;5.78;;;2.80;;
39222;SDS011;24936;46.328;11.026;2023-11-18T15:00:20;2.08;;;1.50;;
39222;SDS011;24936;46.328;11.026;2023-11-18T15:02:53;1.38;;;1.27;;
39222;SDS011;24936;46.328;11.026;2023-11-18T15:05:20;1.95;;;1.63;;
39222;SDS011;24936;46.328;11.026;2023-11-18T15:07:50;1.70;;;1.60;;
39222;SDS011;24936;46.328;11.026;2023-11-18T15:10:18;1.40;;;1.30;;
39222;SDS011;24936;46.328;11.026;2023-11-18T15:12:51;1.10;;;1.00;;
39222;SDS011;24936;46.328;11.026;2023-11-18T15:15:24;1.02;;;0.90;;
39222;SDS011;24936;46.328;11.026;2023-11-18T15:18:03;1.60;;;1.48;;
39222;SDS011;24936;46.328;11.026;2023-11-18T15:20:30;4.72;;;1.50;;
39222;SDS011;24936;46.328;11.026;2023-11-18T15:22:56;1.33;;;1.23;;